メインページ
METAR-TAF:

METAR-TAF

空港 :

Fort Nelson, ブリティッシュコロンビア州, カナダ

緯度: 58-50N, 経度: 122-35W, 海抜: 382m

現時点の気象観測

当レポートは3時間40分前の05:00(UTC)に作成
北/北西の風 5kt
気温 21°C
湿度 69%
気圧 1006 hPa
視程: 24.1km
高度9200ftの雲は散在している, 積乱雲.
高度18000ftの千切れ雲あり
高度24000ftの千切れ雲あり

METAR: CYYE 030500Z 34005KT 15SM SCT092CB BKN180 BKN240 21/15 A2972 RMK CB4AC2CI1 FRQ DIST LTGCGCC SW-W SH DIST SW-W LAST STFD OBS/NXT 031300Z SLP068 DENSITY ALT 2600FT

時間: 01:40 (08:40 UTC)

予報

当レポートは8時間2分前の00:38(UTC)に作成
予報は03日の 01時(UTC)から 03日の 05時(UTC)まで有効
北西の風 5kt
視程: 10km
高度7000ftの雲はほとんどない
高度25000ftの千切れ雲あり

TAF: CYYE 030038Z 0301/0305 32005KT P6SM FEW070 BKN250 RMK NXT FCST WILL BE ISSUED AT 031415Z

4,000以上の空港の気象観測と天気予報(METAR報とTAF報)

利用可能な観測所は地図上に黄色い丸と赤い丸で示す。

丸の上にカーソルを重ねると観測所名を参照できる。

次にクリックすると気象観測と天気予報を参照できる。

マップの切り替え:黒色「×」印の緑ボタンをクリックして拡大、「-」印の緑ボタンをクリックして縮小、緑色の三角印をクリックして隣りの地図に切り替え


METAR-TAF: